createdAt,value
2018-07-17T00:00:30.362Z,99.90
2018-07-17T00:01:33.906Z,99.90
2018-07-17T00:02:37.547Z,99.90
2018-07-17T00:03:41.135Z,99.90
2018-07-17T00:04:44.729Z,99.90
2018-07-17T00:05:48.331Z,99.90
2018-07-17T00:06:51.978Z,99.90
2018-07-17T00:07:55.454Z,99.90
2018-07-17T00:08:59.093Z,99.90
2018-07-17T00:10:02.639Z,99.90
2018-07-17T00:11:06.237Z,99.90
2018-07-17T00:12:09.764Z,99.90
2018-07-17T00:13:13.378Z,99.90
2018-07-17T00:14:16.982Z,99.90
2018-07-17T00:15:20.530Z,99.90
2018-07-17T00:16:24.108Z,99.90
2018-07-17T00:17:27.636Z,99.90
2018-07-17T00:18:31.240Z,99.90
2018-07-17T00:19:34.716Z,99.90
2018-07-17T00:20:38.324Z,99.90
2018-07-17T00:21:41.869Z,99.90
2018-07-17T00:22:45.464Z,99.90
2018-07-17T00:23:48.953Z,99.90
2018-07-17T00:24:52.691Z,99.90
2018-07-17T00:25:56.223Z,99.90
2018-07-17T00:26:59.971Z,99.90
2018-07-17T00:28:03.540Z,99.90
2018-07-17T00:29:07.048Z,99.90
2018-07-17T00:30:10.633Z,99.90
2018-07-17T00:31:14.397Z,99.90
2018-07-17T00:32:17.909Z,99.90
2018-07-17T00:33:21.562Z,99.90
2018-07-17T00:34:25.048Z,99.90
2018-07-17T00:35:28.618Z,99.90
2018-07-17T00:36:32.106Z,99.90
2018-07-17T00:37:35.598Z,99.90
2018-07-17T00:38:39.133Z,99.90
2018-07-17T00:39:43.855Z,99.90
2018-07-17T00:40:47.397Z,99.90
2018-07-17T00:41:51.138Z,99.90
2018-07-17T00:42:54.667Z,99.90
2018-07-17T00:43:58.230Z,99.90
2018-07-17T00:45:01.712Z,99.90
2018-07-17T00:46:05.322Z,99.90
2018-07-17T00:47:08.796Z,99.90
2018-07-17T00:48:12.526Z,99.90
2018-07-17T00:49:16.094Z,99.90
2018-07-17T00:50:19.842Z,99.90
2018-07-17T00:51:23.339Z,99.90
2018-07-17T00:52:26.910Z,99.90
2018-07-17T00:53:30.488Z,99.90
2018-07-17T00:54:34.015Z,99.90
2018-07-17T00:55:37.677Z,99.90
2018-07-17T00:56:41.597Z,99.90
2018-07-17T00:57:45.267Z,99.90
2018-07-17T00:58:48.799Z,99.90
2018-07-17T00:59:52.416Z,99.90
2018-07-17T01:00:55.143Z,99.90
2018-07-17T01:02:04.257Z,99.90
2018-07-17T01:03:13.389Z,99.90
2018-07-17T01:04:22.250Z,99.90
2018-07-17T01:05:31.282Z,99.90
2018-07-17T01:06:39.995Z,99.90
2018-07-17T01:07:48.868Z,99.90
2018-07-17T01:08:57.647Z,99.90
2018-07-17T01:10:06.564Z,99.90
2018-07-17T01:11:15.331Z,99.90
2018-07-17T01:12:18.012Z,99.90
2018-07-17T01:13:31.263Z,99.90
2018-07-17T01:14:41.026Z,99.90
2018-07-17T01:15:44.748Z,99.90
2018-07-17T01:16:48.230Z,99.90
2018-07-17T01:17:51.770Z,99.90
2018-07-17T01:18:55.246Z,99.90
2018-07-17T01:19:58.875Z,99.90
2018-07-17T01:21:02.359Z,99.90
2018-07-17T01:22:05.958Z,99.90
2018-07-17T01:23:09.469Z,99.90
2018-07-17T01:24:13.231Z,99.90
2018-07-17T01:25:16.759Z,99.90
2018-07-17T01:26:20.317Z,99.90
2018-07-17T01:27:23.834Z,99.90
2018-07-17T01:28:27.567Z,99.90
2018-07-17T01:29:31.053Z,99.90
2018-07-17T01:30:34.638Z,99.90
2018-07-17T01:31:38.106Z,99.90
2018-07-17T01:32:41.696Z,99.90
2018-07-17T01:33:45.353Z,99.90
2018-07-17T01:34:48.841Z,99.90
2018-07-17T01:35:52.527Z,99.90
2018-07-17T01:36:56.085Z,99.90
2018-07-17T01:37:59.721Z,99.90
2018-07-17T01:39:03.352Z,99.90
2018-07-17T01:40:06.866Z,99.90
2018-07-17T01:41:10.569Z,99.90
2018-07-17T01:42:14.158Z,99.90
2018-07-17T01:43:18.142Z,99.90
2018-07-17T01:44:21.734Z,99.90
2018-07-17T01:45:25.721Z,99.90
2018-07-17T01:46:29.375Z,99.90
2018-07-17T01:47:32.916Z,99.90
2018-07-17T01:48:36.454Z,99.90
2018-07-17T01:49:40.084Z,99.90
2018-07-17T01:50:43.916Z,99.90
2018-07-17T01:51:47.398Z,99.90
2018-07-17T01:52:51.052Z,99.90
2018-07-17T01:53:54.649Z,99.90
2018-07-17T01:54:58.171Z,99.90
2018-07-17T01:56:01.681Z,99.90
2018-07-17T01:57:05.274Z,99.90
2018-07-17T01:58:08.773Z,99.90
2018-07-17T01:59:12.660Z,99.90
2018-07-17T02:00:16.176Z,99.90
2018-07-17T02:01:19.793Z,99.90
2018-07-17T02:02:23.274Z,99.90
2018-07-17T02:03:27.119Z,99.90
2018-07-17T02:04:30.669Z,99.90
2018-07-17T02:05:34.231Z,99.90
2018-07-17T02:06:37.814Z,99.90
2018-07-17T02:07:41.868Z,99.90
2018-07-17T02:08:45.412Z,99.90
2018-07-17T02:09:49.017Z,99.90
2018-07-17T02:10:52.530Z,99.90
2018-07-17T02:11:56.145Z,99.90
2018-07-17T02:12:59.601Z,99.90
2018-07-17T02:14:03.246Z,99.90
2018-07-17T02:15:06.814Z,99.90
2018-07-17T02:16:10.431Z,99.90
2018-07-17T02:17:14.276Z,99.90
2018-07-17T02:18:17.855Z,99.90
2018-07-17T02:19:21.356Z,99.90
2018-07-17T02:20:25.158Z,99.90
2018-07-17T02:21:28.895Z,99.90
2018-07-17T02:22:32.518Z,99.90
2018-07-17T02:23:36.003Z,99.90
2018-07-17T02:24:39.633Z,99.90
2018-07-17T02:25:43.481Z,99.90
2018-07-17T02:26:47.354Z,99.90
2018-07-17T02:27:50.891Z,99.90
2018-07-17T02:28:54.661Z,99.90
2018-07-17T02:29:58.431Z,99.90
2018-07-17T02:31:02.164Z,99.90
2018-07-17T02:32:05.673Z,99.90
2018-07-17T02:33:09.252Z,99.90
2018-07-17T02:34:12.970Z,99.90
2018-07-17T02:35:16.476Z,99.90
2018-07-17T02:36:20.134Z,99.90
2018-07-17T02:37:23.768Z,99.90
2018-07-17T02:38:27.378Z,99.90
2018-07-17T02:39:30.914Z,99.90
2018-07-17T02:40:34.585Z,99.90
2018-07-17T02:41:38.302Z,99.90
2018-07-17T02:42:42.091Z,99.90
2018-07-17T02:43:45.581Z,99.90
2018-07-17T02:44:49.206Z,99.90
2018-07-17T02:45:52.911Z,99.90
2018-07-17T02:46:56.503Z,99.90
2018-07-17T02:48:00.035Z,99.90
2018-07-17T02:49:03.670Z,99.90
2018-07-17T02:50:07.315Z,99.90
2018-07-17T02:51:11.047Z,99.90
2018-07-17T02:52:14.646Z,99.90
2018-07-17T02:53:18.234Z,99.90
2018-07-17T02:54:21.756Z,99.90
2018-07-17T02:55:25.493Z,99.90
2018-07-17T02:56:29.208Z,99.90
2018-07-17T02:57:32.809Z,99.90
2018-07-17T02:58:36.313Z,99.90
2018-07-17T02:59:40.133Z,99.90
2018-07-17T03:00:43.630Z,99.90
2018-07-17T03:01:47.218Z,99.90
2018-07-17T03:02:50.901Z,99.90
2018-07-17T03:03:54.702Z,99.90
2018-07-17T03:04:58.293Z,99.90
2018-07-17T03:06:02.550Z,99.90
2018-07-17T03:07:06.165Z,99.90
2018-07-17T03:08:09.924Z,99.90
2018-07-17T03:09:13.539Z,99.90
2018-07-17T03:10:17.891Z,99.90
2018-07-17T03:11:21.489Z,99.90
2018-07-17T03:12:25.289Z,99.90
2018-07-17T03:13:28.855Z,99.90
2018-07-17T03:14:32.548Z,99.90
2018-07-17T03:15:36.101Z,99.90
2018-07-17T03:16:40.015Z,99.90
2018-07-17T03:17:43.762Z,99.90
2018-07-17T03:18:47.466Z,99.90
2018-07-17T03:19:51.007Z,99.90
2018-07-17T03:20:55.547Z,99.90
2018-07-17T03:21:59.032Z,99.90
2018-07-17T03:23:02.921Z,99.90
2018-07-17T03:24:06.482Z,99.90
2018-07-17T03:25:10.374Z,99.90
2018-07-17T03:26:14.018Z,99.90
2018-07-17T03:27:17.831Z,99.90
2018-07-17T03:28:21.385Z,99.90
2018-07-17T03:29:25.081Z,99.90
2018-07-17T03:30:28.595Z,99.90
2018-07-17T03:31:32.174Z,99.90
2018-07-17T03:32:35.686Z,99.90
2018-07-17T03:33:39.712Z,99.90
2018-07-17T03:34:43.207Z,99.90
2018-07-17T03:35:47.182Z,99.90
2018-07-17T03:36:50.717Z,99.90
2018-07-17T03:37:54.664Z,99.90
2018-07-17T03:38:58.210Z,99.90
2018-07-17T03:40:01.790Z,99.90
2018-07-17T03:41:05.343Z,99.90
2018-07-17T03:42:08.954Z,99.90
2018-07-17T03:43:12.573Z,99.90
2018-07-17T03:44:16.187Z,99.90
2018-07-17T03:45:19.764Z,99.90
2018-07-17T03:46:23.362Z,99.90
2018-07-17T03:47:26.823Z,99.90
2018-07-17T03:48:30.453Z,99.90
2018-07-17T03:49:33.927Z,99.90
2018-07-17T03:50:37.504Z,99.90
2018-07-17T03:51:41.020Z,99.90
2018-07-17T03:52:44.653Z,99.90
2018-07-17T03:53:48.140Z,99.90
2018-07-17T03:54:51.687Z,99.90
2018-07-17T03:55:55.577Z,99.90
2018-07-17T03:56:59.126Z,99.90
2018-07-17T03:58:02.653Z,99.90
2018-07-17T03:59:06.205Z,99.90
2018-07-17T04:00:09.906Z,99.90
2018-07-17T04:01:20.084Z,99.90
2018-07-17T04:02:23.655Z,99.90
2018-07-17T04:03:27.156Z,99.90
2018-07-17T04:04:30.740Z,99.90
2018-07-17T04:05:34.376Z,99.90
2018-07-17T04:06:38.024Z,99.90
2018-07-17T04:07:41.592Z,99.90
2018-07-17T04:08:45.306Z,99.90
2018-07-17T04:09:48.697Z,99.90
2018-07-17T04:10:52.290Z,99.90
2018-07-17T04:11:55.929Z,99.90
2018-07-17T04:12:59.690Z,99.90
2018-07-17T04:14:03.234Z,99.90
2018-07-17T04:15:07.045Z,99.90
2018-07-17T04:16:10.664Z,99.90
2018-07-17T04:17:14.295Z,99.90
2018-07-17T04:18:17.979Z,99.90
2018-07-17T04:19:22.245Z,99.90
2018-07-17T04:20:25.793Z,99.90
2018-07-17T04:21:31.731Z,99.90
2018-07-17T04:22:35.560Z,99.90
2018-07-17T04:23:39.159Z,99.90
2018-07-17T04:24:42.734Z,99.90
2018-07-17T04:25:46.517Z,99.90
2018-07-17T04:26:50.151Z,99.90
2018-07-17T04:27:53.840Z,99.90
2018-07-17T04:28:57.814Z,99.90
2018-07-17T04:30:01.366Z,99.90
2018-07-17T04:31:05.241Z,99.90
2018-07-17T04:32:08.787Z,99.90
2018-07-17T04:33:12.836Z,99.90
2018-07-17T04:34:16.429Z,99.90
2018-07-17T04:35:20.111Z,99.90
2018-07-17T04:36:23.617Z,99.90
2018-07-17T04:37:27.253Z,99.90
2018-07-17T04:38:30.881Z,99.90
2018-07-17T04:39:34.540Z,99.90
2018-07-17T04:40:38.064Z,99.90
2018-07-17T04:41:42.230Z,99.90
2018-07-17T04:42:45.766Z,99.90
2018-07-17T04:43:49.452Z,99.90
2018-07-17T04:44:52.978Z,99.90
2018-07-17T04:45:56.977Z,99.90
2018-07-17T04:47:00.555Z,99.90
2018-07-17T04:48:04.222Z,99.90
2018-07-17T04:49:07.730Z,99.90
2018-07-17T04:50:11.860Z,99.10
2018-07-17T04:51:15.539Z,98.60
2018-07-17T04:53:22.533Z,98.50
2018-07-17T04:54:26.142Z,97.60
2018-07-17T04:55:29.771Z,97.40
2018-07-17T04:56:33.428Z,96.60
2018-07-17T04:57:37.067Z,95.70
2018-07-17T04:58:40.628Z,95.10
2018-07-17T04:59:44.179Z,94.60
2018-07-17T05:00:47.768Z,94.10
2018-07-17T05:01:51.610Z,93.70
2018-07-17T05:02:55.260Z,93.20
2018-07-17T05:03:59.047Z,92.70
2018-07-17T05:05:02.902Z,92.00
2018-07-17T05:06:06.563Z,91.30
2018-07-17T05:07:10.675Z,90.90
2018-07-17T05:08:14.455Z,90.40
2018-07-17T05:09:18.255Z,89.90
2018-07-17T05:10:21.806Z,88.70
2018-07-17T05:11:25.725Z,87.50
2018-07-17T05:12:29.484Z,86.30
2018-07-17T05:13:34.166Z,86.10
2018-07-17T05:14:37.666Z,85.20
2018-07-17T05:15:41.181Z,83.60
2018-07-17T05:16:44.711Z,83.00
2018-07-17T05:17:48.623Z,81.90
2018-07-17T05:18:52.188Z,80.60
2018-07-17T05:20:59.209Z,78.50
2018-07-17T05:22:02.815Z,78.20
2018-07-17T05:23:06.431Z,76.90
2018-07-17T05:24:10.204Z,75.00
2018-07-17T05:25:13.834Z,73.00
2018-07-17T05:27:20.566Z,71.20
2018-07-17T05:28:24.195Z,70.90
2018-07-17T05:29:27.746Z,70.10
2018-07-17T05:30:31.301Z,68.20
2018-07-17T05:31:35.613Z,68.00
2018-07-17T05:32:39.202Z,66.30
2018-07-17T05:33:42.844Z,65.90
2018-07-17T05:34:46.379Z,66.00
2018-07-17T05:35:50.023Z,65.00
2018-07-17T05:36:53.670Z,66.00
2018-07-17T05:37:57.395Z,65.40
2018-07-17T05:39:01.028Z,64.60
2018-07-17T05:40:05.275Z,64.70
2018-07-17T05:41:09.025Z,64.90
2018-07-17T05:43:16.055Z,62.00
2018-07-17T05:44:20.559Z,61.40
2018-07-17T05:45:24.241Z,61.30
2018-07-17T05:46:27.990Z,61.00
2018-07-17T05:47:31.863Z,60.80
2018-07-17T05:48:35.401Z,60.50
2018-07-17T05:49:39.049Z,61.00
2018-07-17T05:50:42.561Z,60.90
2018-07-17T05:51:46.205Z,60.40
2018-07-17T05:52:49.723Z,60.60
2018-07-17T05:53:53.397Z,60.40
2018-07-17T05:54:56.884Z,60.00
2018-07-17T05:56:00.471Z,59.80
2018-07-17T05:57:03.978Z,59.60
2018-07-17T05:58:07.671Z,58.90
2018-07-17T05:59:11.457Z,57.40
2018-07-17T06:00:15.263Z,57.60
2018-07-17T06:01:18.977Z,56.30
2018-07-17T06:02:22.592Z,56.20
2018-07-17T06:03:26.302Z,56.30
2018-07-17T06:04:29.912Z,56.60
2018-07-17T06:05:34.244Z,57.50
2018-07-17T06:06:37.941Z,57.60
2018-07-17T06:07:41.478Z,57.30
2018-07-17T06:08:45.059Z,56.20
2018-07-17T06:09:48.717Z,56.40
2018-07-17T06:10:52.296Z,56.50
2018-07-17T06:11:55.826Z,56.40
2018-07-17T06:12:59.457Z,56.10
2018-07-17T06:14:03.020Z,56.20
2018-07-17T06:15:06.857Z,56.30
2018-07-17T06:16:10.551Z,56.60
2018-07-17T06:17:14.181Z,56.80
2018-07-17T06:18:17.757Z,56.80
2018-07-17T06:19:21.242Z,56.00
2018-07-17T06:20:24.811Z,56.00
2018-07-17T06:21:28.421Z,55.80
2018-07-17T06:22:32.076Z,55.30
2018-07-17T06:23:35.685Z,55.30
2018-07-17T06:24:39.327Z,55.50
2018-07-17T06:25:42.917Z,55.90
2018-07-17T06:26:46.516Z,55.90
2018-07-17T06:27:50.772Z,55.40
2018-07-17T06:28:54.616Z,54.90
2018-07-17T06:29:58.530Z,54.60
2018-07-17T06:31:02.144Z,54.40
2018-07-17T06:32:06.102Z,53.50
2018-07-17T06:33:09.701Z,52.70
2018-07-17T06:34:14.333Z,51.90
2018-07-17T06:35:18.325Z,51.50
2018-07-17T06:36:22.302Z,50.80
2018-07-17T06:37:25.873Z,49.90
2018-07-17T06:38:29.854Z,49.50
2018-07-17T06:39:33.530Z,49.40
2018-07-17T06:40:37.474Z,49.40
2018-07-17T06:41:41.054Z,48.90
2018-07-17T06:42:44.914Z,48.70
2018-07-17T06:43:48.776Z,49.10
2018-07-17T06:45:56.667Z,48.70
2018-07-17T06:47:00.321Z,48.60
2018-07-17T06:48:03.924Z,48.40
2018-07-17T06:49:08.001Z,48.20
2018-07-17T06:50:11.935Z,47.90
2018-07-17T06:51:15.776Z,47.00
2018-07-17T06:52:24.325Z,46.60
2018-07-17T06:53:30.527Z,46.60
2018-07-17T06:55:37.626Z,46.40
2018-07-17T06:56:41.364Z,45.60
2018-07-17T06:57:45.193Z,45.40
2018-07-17T06:58:48.817Z,45.40
2018-07-17T06:59:52.717Z,45.60
2018-07-17T07:00:56.384Z,45.60
2018-07-17T07:02:00.969Z,44.90
2018-07-17T07:03:04.695Z,44.60
2018-07-17T07:04:08.213Z,44.90
2018-07-17T07:05:12.469Z,44.80
2018-07-17T07:06:16.364Z,45.10
2018-07-17T07:08:23.784Z,44.50
2018-07-17T07:09:27.494Z,44.70
2018-07-17T07:10:31.205Z,44.10
2018-07-17T07:11:34.830Z,43.80
2018-07-17T07:12:38.591Z,43.50
2018-07-17T07:13:42.253Z,43.50
2018-07-17T07:14:46.187Z,43.30
2018-07-17T07:15:50.257Z,43.60
2018-07-17T07:16:53.814Z,43.30
2018-07-17T07:17:59.410Z,42.90
2018-07-17T07:19:03.075Z,43.00
2018-07-17T07:20:06.849Z,42.40
2018-07-17T07:21:10.677Z,42.40
2018-07-17T07:22:14.854Z,42.40
2018-07-17T07:23:18.529Z,42.20
2018-07-17T07:24:22.262Z,42.60
2018-07-17T07:25:25.867Z,43.30
2018-07-17T07:26:29.848Z,42.80
2018-07-17T07:27:33.424Z,43.00
2018-07-17T07:28:37.220Z,43.40
2018-07-17T07:29:41.466Z,42.80
2018-07-17T07:30:45.323Z,43.10
2018-07-17T07:31:48.944Z,42.40
2018-07-17T07:32:52.655Z,41.90
2018-07-17T07:33:56.506Z,41.60
2018-07-17T07:35:00.525Z,41.20
2018-07-17T07:36:04.187Z,40.50
2018-07-17T07:37:07.799Z,40.00
2018-07-17T07:38:11.966Z,39.80
2018-07-17T07:39:15.799Z,39.90
2018-07-17T07:40:19.724Z,40.10
2018-07-17T07:41:23.523Z,39.70
2018-07-17T07:42:27.286Z,39.40
2018-07-17T07:43:30.919Z,38.60
2018-07-17T07:44:34.673Z,38.40
2018-07-17T07:45:39.250Z,38.00
2018-07-17T07:46:43.306Z,38.40
2018-07-17T07:47:46.932Z,39.00
2018-07-17T07:48:50.773Z,39.00
2018-07-17T07:49:54.423Z,38.70
2018-07-17T07:50:58.483Z,38.60
2018-07-17T07:52:02.103Z,38.60
2018-07-17T07:53:05.994Z,38.20
2018-07-17T07:54:09.752Z,38.20
2018-07-17T07:55:13.731Z,37.80
2018-07-17T07:56:17.513Z,37.60
2018-07-17T07:57:21.980Z,37.00
2018-07-17T07:58:25.718Z,37.30
2018-07-17T07:59:29.620Z,37.50
2018-07-17T08:00:34.400Z,36.50
2018-07-17T08:01:38.136Z,36.90
2018-07-17T08:02:41.848Z,37.10
2018-07-17T08:03:45.728Z,37.70
2018-07-17T08:04:49.581Z,37.30
2018-07-17T08:05:53.743Z,37.20
2018-07-17T08:06:57.393Z,38.00
2018-07-17T08:08:00.964Z,37.60
2018-07-17T08:09:06.628Z,37.50
2018-07-17T08:10:10.360Z,36.90
2018-07-17T08:11:14.172Z,36.20
2018-07-17T08:12:17.759Z,36.40
2018-07-17T08:13:21.438Z,36.60
2018-07-17T08:14:24.993Z,36.80
2018-07-17T08:15:28.850Z,36.10
2018-07-17T08:16:32.487Z,36.10
2018-07-17T08:17:36.087Z,35.40
2018-07-17T08:18:39.693Z,35.90
2018-07-17T08:19:44.046Z,35.90
2018-07-17T08:20:47.541Z,35.70
2018-07-17T08:21:51.054Z,35.60
2018-07-17T08:22:54.670Z,35.90
2018-07-17T08:23:58.375Z,36.10
2018-07-17T08:25:01.919Z,36.40
2018-07-17T08:26:05.567Z,34.90
2018-07-17T08:27:09.290Z,35.30
2018-07-17T08:28:13.103Z,36.10
2018-07-17T08:29:17.057Z,36.80
2018-07-17T08:30:20.573Z,37.40
2018-07-17T08:31:24.191Z,38.00
2018-07-17T08:32:27.858Z,38.20
2018-07-17T08:33:31.474Z,38.20
2018-07-17T08:34:35.111Z,38.10
2018-07-17T08:35:39.217Z,37.20
2018-07-17T08:36:42.808Z,36.90
2018-07-17T08:38:50.241Z,38.00
2018-07-17T08:39:54.721Z,39.00
2018-07-17T08:40:58.820Z,39.40
2018-07-17T08:42:02.948Z,38.90
2018-07-17T08:43:06.759Z,38.20
2018-07-17T08:44:10.510Z,38.50
2018-07-17T08:45:14.235Z,38.20
2018-07-17T08:46:18.611Z,39.20
2018-07-17T08:47:22.341Z,38.70
2018-07-17T08:48:26.482Z,39.00
2018-07-17T08:49:30.116Z,39.10
2018-07-17T08:50:34.345Z,37.30
2018-07-17T08:51:38.318Z,37.20
2018-07-17T08:52:42.270Z,37.70
2018-07-17T08:53:46.011Z,38.10
2018-07-17T08:54:49.906Z,37.90
2018-07-17T08:55:53.505Z,38.30
2018-07-17T08:56:57.116Z,39.80
2018-07-17T08:58:01.516Z,39.30
2018-07-17T08:59:05.241Z,38.90
2018-07-17T09:00:09.957Z,38.60
2018-07-17T09:01:13.823Z,38.40
2018-07-17T09:02:17.534Z,38.50
2018-07-17T09:03:21.116Z,37.90
2018-07-17T09:04:24.675Z,37.80
2018-07-17T09:05:28.345Z,37.50
2018-07-17T09:06:31.976Z,36.40
2018-07-17T09:07:35.578Z,36.90
2018-07-17T09:08:39.206Z,37.20
2018-07-17T09:09:43.901Z,37.10
2018-07-17T09:10:47.667Z,36.50
2018-07-17T09:11:51.331Z,36.40
2018-07-17T09:12:55.022Z,36.60
2018-07-17T09:13:58.525Z,37.10
2018-07-17T09:16:05.568Z,36.70
2018-07-17T09:17:09.393Z,36.80
2018-07-17T09:18:13.156Z,36.30
2018-07-17T09:19:16.752Z,36.40
2018-07-17T09:20:20.358Z,36.30
2018-07-17T09:21:23.988Z,36.00
2018-07-17T09:22:27.542Z,36.20
2018-07-17T09:23:31.235Z,36.10
2018-07-17T09:24:34.792Z,37.20
2018-07-17T09:25:38.609Z,35.80
2018-07-17T09:27:45.692Z,35.60
2018-07-17T09:28:49.227Z,36.10
2018-07-17T09:29:52.922Z,36.60
2018-07-17T09:30:58.844Z,37.00
2018-07-17T09:32:02.914Z,37.50
2018-07-17T09:33:06.513Z,37.30
2018-07-17T09:34:10.326Z,37.40
2018-07-17T09:35:13.909Z,38.30
2018-07-17T09:36:17.520Z,38.00
2018-07-17T09:37:21.247Z,38.00
2018-07-17T09:38:24.781Z,37.40
2018-07-17T09:39:28.305Z,36.90
2018-07-17T09:40:31.854Z,37.30
2018-07-17T09:41:35.327Z,37.20
2018-07-17T09:42:38.989Z,36.90
2018-07-17T09:43:42.832Z,37.00
2018-07-17T09:44:46.432Z,37.80
2018-07-17T09:45:50.300Z,38.80
2018-07-17T09:46:53.809Z,39.10
2018-07-17T09:47:57.384Z,39.80
2018-07-17T09:49:00.939Z,39.40
2018-07-17T09:50:04.534Z,39.40
2018-07-17T09:51:08.424Z,38.60
2018-07-17T09:52:12.004Z,39.50
2018-07-17T09:53:15.563Z,40.30
2018-07-17T09:54:19.103Z,41.10
2018-07-17T09:55:22.661Z,41.40
2018-07-17T09:56:26.463Z,41.40
2018-07-17T09:57:30.074Z,40.00
2018-07-17T09:58:33.660Z,40.20
2018-07-17T09:59:37.164Z,40.00
2018-07-17T10:00:45.865Z,40.80
2018-07-17T10:01:54.779Z,41.30
2018-07-17T10:02:58.412Z,42.20
2018-07-17T10:04:02.329Z,42.20
2018-07-17T10:05:05.922Z,40.40
2018-07-17T10:06:09.716Z,41.90
2018-07-17T10:07:13.399Z,41.40
2018-07-17T10:08:16.978Z,41.60
2018-07-17T10:09:20.527Z,41.80
2018-07-17T10:10:24.161Z,42.70
2018-07-17T10:11:27.843Z,43.70
2018-07-17T10:12:31.754Z,42.10
2018-07-17T10:13:35.301Z,41.60
2018-07-17T10:14:39.042Z,43.80
2018-07-17T10:15:42.914Z,44.30
2018-07-17T10:16:46.575Z,44.40
2018-07-17T10:17:50.099Z,44.80
2018-07-17T10:18:53.759Z,44.40
2018-07-17T10:19:57.299Z,44.60
2018-07-17T10:21:00.875Z,43.60
2018-07-17T10:22:04.591Z,43.60
2018-07-17T10:23:08.271Z,44.20
2018-07-17T10:24:12.000Z,44.60
2018-07-17T10:25:15.579Z,44.50
2018-07-17T10:26:19.173Z,45.30
2018-07-17T10:27:22.844Z,44.40
2018-07-17T10:28:26.470Z,44.50
2018-07-17T10:29:30.239Z,45.30
2018-07-17T10:30:33.750Z,45.00
2018-07-17T10:31:37.409Z,45.30
2018-07-17T10:32:40.897Z,45.90
2018-07-17T10:33:44.762Z,46.40
2018-07-17T10:34:48.251Z,45.90
2018-07-17T10:35:51.891Z,45.60
2018-07-17T10:36:55.524Z,46.10
2018-07-17T10:37:59.094Z,46.40
2018-07-17T10:39:02.712Z,46.60
2018-07-17T10:40:06.792Z,46.30
2018-07-17T10:41:10.546Z,46.20
2018-07-17T10:42:14.314Z,46.50
2018-07-17T10:43:17.938Z,47.20
2018-07-17T10:44:21.550Z,46.30
2018-07-17T10:45:25.149Z,46.40
2018-07-17T10:46:28.727Z,46.10
2018-07-17T10:47:32.276Z,46.10
2018-07-17T10:48:35.807Z,45.50
2018-07-17T10:49:39.489Z,45.30
2018-07-17T10:50:43.032Z,45.10
2018-07-17T10:51:46.578Z,45.40
2018-07-17T10:52:50.202Z,46.10
2018-07-17T10:53:53.869Z,46.40
2018-07-17T10:54:57.395Z,46.10
2018-07-17T10:56:00.915Z,46.60
2018-07-17T10:57:04.553Z,46.70
2018-07-17T10:58:08.197Z,47.60
2018-07-17T10:59:12.073Z,48.10
2018-07-17T11:00:15.600Z,47.60
2018-07-17T11:01:19.615Z,47.60
2018-07-17T11:02:23.929Z,48.10
2018-07-17T11:03:27.606Z,48.30
2018-07-17T11:04:31.133Z,47.60
2018-07-17T11:05:34.803Z,46.50
2018-07-17T11:06:38.403Z,45.80
2018-07-17T11:07:42.032Z,46.30
2018-07-17T11:08:45.590Z,46.80
2018-07-17T11:09:49.258Z,46.80
2018-07-17T11:10:52.989Z,46.10
2018-07-17T11:11:57.207Z,45.70
2018-07-17T11:13:00.783Z,45.70
2018-07-17T11:14:04.403Z,45.60
2018-07-17T11:15:08.005Z,45.90
2018-07-17T11:16:11.758Z,46.40
2018-07-17T11:17:15.303Z,46.90
2018-07-17T11:18:18.900Z,47.20
2018-07-17T11:19:22.628Z,46.50
2018-07-17T11:20:26.263Z,46.70
2018-07-17T11:21:29.986Z,46.40
2018-07-17T11:22:33.553Z,46.40
2018-07-17T11:23:37.334Z,46.20
2018-07-17T11:24:40.868Z,47.00
2018-07-17T11:25:45.051Z,45.90
2018-07-17T11:26:48.741Z,45.80
2018-07-17T11:27:52.486Z,46.30
2018-07-17T11:29:59.589Z,47.90
2018-07-17T11:31:03.382Z,48.60
2018-07-17T11:32:07.344Z,48.60
2018-07-17T11:33:11.087Z,48.10
2018-07-17T11:34:14.995Z,48.20
2018-07-17T11:35:18.801Z,47.80
2018-07-17T11:36:22.468Z,47.30
2018-07-17T11:37:26.280Z,47.30
2018-07-17T11:38:29.913Z,47.70
2018-07-17T11:39:33.665Z,48.00
2018-07-17T11:40:37.317Z,47.20
2018-07-17T11:42:44.295Z,45.80
2018-07-17T11:43:47.829Z,45.60
2018-07-17T11:44:51.429Z,45.80
2018-07-17T11:45:54.950Z,45.40
2018-07-17T11:46:58.568Z,45.10
2018-07-17T11:48:02.261Z,46.10
2018-07-17T11:49:06.459Z,45.50
2018-07-17T11:50:10.080Z,46.40
2018-07-17T11:51:13.706Z,46.10
2018-07-17T11:52:17.379Z,44.60
2018-07-17T11:53:21.065Z,44.00
2018-07-17T11:54:24.519Z,44.10
2018-07-17T11:55:28.138Z,43.60
2018-07-17T11:56:31.729Z,43.90
2018-07-17T11:57:35.736Z,44.10
2018-07-17T11:58:39.241Z,44.10
2018-07-17T11:59:43.233Z,44.30
2018-07-17T12:00:46.813Z,44.90
2018-07-17T12:01:50.463Z,44.50
2018-07-17T12:02:53.986Z,45.00
2018-07-17T12:03:57.969Z,45.20
2018-07-17T12:05:01.519Z,44.90
2018-07-17T12:06:05.250Z,45.00
2018-07-17T12:07:08.757Z,45.10
2018-07-17T12:08:12.854Z,45.20
2018-07-17T12:09:16.317Z,45.80
2018-07-17T12:10:20.003Z,46.40
2018-07-17T12:12:26.788Z,47.90
2018-07-17T12:13:30.333Z,48.20
2018-07-17T12:14:34.043Z,48.40
2018-07-17T12:15:37.546Z,48.80
2018-07-17T12:16:41.169Z,49.50
2018-07-17T12:17:44.718Z,50.70
2018-07-17T12:18:48.329Z,49.90
2018-07-17T12:19:51.895Z,51.30
2018-07-17T12:20:55.531Z,51.10
2018-07-17T12:21:59.462Z,51.50
2018-07-17T12:23:03.293Z,51.20
2018-07-17T12:24:06.799Z,51.60
2018-07-17T12:25:10.491Z,52.00
2018-07-17T12:26:14.081Z,51.70
2018-07-17T12:27:17.672Z,51.60
2018-07-17T12:28:21.232Z,51.60
2018-07-17T12:29:24.790Z,51.60
2018-07-17T12:30:28.324Z,53.00
2018-07-17T12:31:31.967Z,53.00
2018-07-17T12:32:35.706Z,53.10
2018-07-17T12:33:39.277Z,52.60
2018-07-17T12:34:42.815Z,52.10
2018-07-17T12:35:46.579Z,52.30
2018-07-17T12:36:50.153Z,53.10
2018-07-17T12:37:53.773Z,53.30
2018-07-17T12:38:57.394Z,53.40
2018-07-17T12:40:01.309Z,52.80
2018-07-17T12:41:05.030Z,52.20
2018-07-17T12:42:08.643Z,51.80
2018-07-17T12:43:12.476Z,52.40
2018-07-17T12:44:16.185Z,52.60
2018-07-17T12:45:19.877Z,51.80
2018-07-17T12:46:23.507Z,51.40
2018-07-17T12:47:27.044Z,51.80
2018-07-17T12:48:30.724Z,51.00
2018-07-17T12:49:34.389Z,50.90
2018-07-17T12:50:37.972Z,50.80
2018-07-17T12:51:41.564Z,51.00
2018-07-17T12:52:45.183Z,51.10
2018-07-17T12:54:52.221Z,51.30
2018-07-17T12:55:55.822Z,50.60
2018-07-17T12:56:59.371Z,50.60
2018-07-17T12:58:02.993Z,50.80
2018-07-17T12:59:06.485Z,50.40
2018-07-17T13:00:10.334Z,49.90
2018-07-17T13:01:13.968Z,49.40
2018-07-17T13:02:18.645Z,49.30
2018-07-17T13:03:22.167Z,49.20
2018-07-17T13:04:25.812Z,49.90
2018-07-17T13:05:29.568Z,49.90
2018-07-17T13:06:33.225Z,51.00
2018-07-17T13:07:36.834Z,50.90
2018-07-17T13:08:40.533Z,50.60
2018-07-17T13:09:44.271Z,50.90
2018-07-17T13:10:47.854Z,50.90
2018-07-17T13:11:51.318Z,50.80
2018-07-17T13:12:55.069Z,50.80
2018-07-17T13:13:58.730Z,50.30
2018-07-17T13:15:02.435Z,50.10
2018-07-17T13:16:06.175Z,49.50
2018-07-17T13:17:09.906Z,50.20
2018-07-17T13:18:13.461Z,50.10
2018-07-17T13:19:17.125Z,50.70
2018-07-17T13:20:20.668Z,50.90
2018-07-17T13:21:24.237Z,51.10
2018-07-17T13:22:27.762Z,50.80
2018-07-17T13:23:31.448Z,51.00
2018-07-17T13:24:35.176Z,51.20
2018-07-17T13:25:38.676Z,49.90
2018-07-17T13:26:42.150Z,49.70
2018-07-17T13:27:45.856Z,49.20
2018-07-17T13:28:49.435Z,48.90
2018-07-17T13:29:53.110Z,49.30
2018-07-17T13:30:56.702Z,48.70
2018-07-17T13:32:00.880Z,47.10
2018-07-17T13:33:04.504Z,47.30
2018-07-17T13:34:08.133Z,47.80
2018-07-17T13:35:11.745Z,48.10
2018-07-17T13:36:15.632Z,48.70
2018-07-17T13:37:19.286Z,47.40
2018-07-17T13:39:26.126Z,46.50
2018-07-17T13:40:30.144Z,46.40
2018-07-17T13:41:33.724Z,47.20
2018-07-17T13:42:37.311Z,46.80
2018-07-17T13:43:40.917Z,46.30
2018-07-17T13:44:44.910Z,46.50
2018-07-17T13:45:48.867Z,46.10
2018-07-17T13:46:52.606Z,47.20
2018-07-17T13:47:56.214Z,46.50
2018-07-17T13:48:59.786Z,47.10
2018-07-17T13:50:03.587Z,46.80
2018-07-17T13:51:07.243Z,46.60
2018-07-17T13:52:10.918Z,46.70
2018-07-17T13:53:14.502Z,46.20
2018-07-17T13:54:18.089Z,46.80
2018-07-17T13:55:21.664Z,46.40
2018-07-17T13:56:25.225Z,46.50
2018-07-17T13:57:28.822Z,47.00